createdAt,value
2017-09-25T00:02:09.903Z,26.40
2017-09-25T00:04:40.825Z,26.40
2017-09-25T00:07:12.726Z,26.40
2017-09-25T00:09:44.408Z,26.60
2017-09-25T00:12:15.340Z,26.60
2017-09-25T00:14:46.670Z,26.70
2017-09-25T00:17:17.694Z,26.80
2017-09-25T00:19:48.674Z,26.90
2017-09-25T00:22:19.590Z,27.00
2017-09-25T00:24:51.279Z,27.20
2017-09-25T00:27:22.236Z,27.10
2017-09-25T00:29:53.166Z,27.20
2017-09-25T00:32:24.179Z,27.30
2017-09-25T00:34:55.092Z,27.40
2017-09-25T00:37:27.200Z,27.60
2017-09-25T00:39:58.094Z,27.60
2017-09-25T00:42:30.431Z,27.70
2017-09-25T00:45:01.341Z,27.80
2017-09-25T00:47:32.275Z,27.80
2017-09-25T00:50:04.130Z,27.90
2017-09-25T00:52:45.655Z,28.00
2017-09-25T00:55:27.220Z,28.00
2017-09-25T00:57:58.209Z,28.10
2017-09-25T01:00:40.459Z,28.20
2017-09-25T01:03:22.627Z,28.20
2017-09-25T01:06:04.830Z,28.50
2017-09-25T01:08:36.503Z,28.60
2017-09-25T01:11:07.870Z,28.60
2017-09-25T01:13:38.780Z,28.70
2017-09-25T01:16:11.162Z,28.80
2017-09-25T01:18:42.147Z,28.80
2017-09-25T01:21:13.059Z,28.90
2017-09-25T01:23:44.517Z,29.00
2017-09-25T01:26:15.554Z,29.10
2017-09-25T01:28:46.906Z,29.10
2017-09-25T01:31:18.921Z,29.20
2017-09-25T01:33:50.623Z,29.30
2017-09-25T01:36:21.527Z,29.30
2017-09-25T01:38:53.212Z,29.30
2017-09-25T01:41:24.788Z,29.40
2017-09-25T01:43:56.516Z,29.60
2017-09-25T01:46:27.509Z,29.60
2017-09-25T01:48:59.168Z,29.70
2017-09-25T01:51:30.867Z,29.80
2017-09-25T01:54:02.972Z,29.70
2017-09-25T01:56:33.884Z,29.80
2017-09-25T01:59:05.299Z,29.90
2017-09-25T02:01:36.970Z,30.00
2017-09-25T02:04:08.134Z,30.00
2017-09-25T02:06:39.058Z,30.20
2017-09-25T02:09:10.028Z,30.30
2017-09-25T02:11:41.331Z,30.30
2017-09-25T02:14:12.215Z,30.40
2017-09-25T02:16:43.412Z,30.40
2017-09-25T02:19:14.319Z,30.60
2017-09-25T02:21:46.003Z,30.80
2017-09-25T02:24:16.900Z,30.80
2017-09-25T02:26:47.819Z,30.90
2017-09-25T02:29:19.182Z,31.00
2017-09-25T02:31:50.109Z,31.10
2017-09-25T02:34:21.053Z,31.20
2017-09-25T02:36:51.966Z,31.30
2017-09-25T02:39:22.876Z,31.40
2017-09-25T02:41:54.633Z,31.50
2017-09-25T02:44:25.551Z,31.50
2017-09-25T02:46:57.552Z,31.70
2017-09-25T02:49:28.482Z,31.70
2017-09-25T02:51:59.771Z,31.70
2017-09-25T02:54:31.503Z,32.00
2017-09-25T02:57:03.333Z,31.90
2017-09-25T02:59:34.626Z,32.10
2017-09-25T03:02:06.298Z,32.20
2017-09-25T03:04:37.207Z,32.30
2017-09-25T03:07:08.139Z,32.40
2017-09-25T03:09:39.058Z,32.50
2017-09-25T03:12:11.269Z,32.60
2017-09-25T03:14:42.183Z,32.70
2017-09-25T03:17:13.307Z,32.80
2017-09-25T03:19:44.232Z,32.90
2017-09-25T03:22:15.907Z,33.00
2017-09-25T03:24:46.817Z,33.00
2017-09-25T03:27:18.539Z,33.00
2017-09-25T03:29:49.887Z,33.00
2017-09-25T03:32:20.831Z,33.10
2017-09-25T03:34:51.761Z,33.10
2017-09-25T03:37:22.702Z,33.20
2017-09-25T03:39:53.631Z,33.20
2017-09-25T03:42:24.975Z,33.20
2017-09-25T03:44:55.869Z,33.20
2017-09-25T03:47:27.769Z,33.40
2017-09-25T03:49:58.675Z,33.40
2017-09-25T03:52:30.383Z,33.60
2017-09-25T03:55:01.312Z,33.60
2017-09-25T03:57:32.234Z,33.70
2017-09-25T04:00:03.571Z,33.80
2017-09-25T04:02:34.508Z,33.80
2017-09-25T04:05:05.464Z,33.90
2017-09-25T04:07:36.382Z,33.90
2017-09-25T04:10:07.278Z,34.00
2017-09-25T04:12:39.404Z,34.10
2017-09-25T04:15:10.476Z,34.20
2017-09-25T04:17:41.401Z,34.30
2017-09-25T04:20:12.341Z,34.30
2017-09-25T04:22:43.257Z,34.50
2017-09-25T04:25:14.586Z,34.50
2017-09-25T04:27:45.491Z,34.50
2017-09-25T04:30:16.782Z,34.50
2017-09-25T04:32:49.067Z,34.50
2017-09-25T04:35:19.979Z,34.50
2017-09-25T04:37:50.898Z,34.60
2017-09-25T04:40:22.580Z,34.70
2017-09-25T04:42:53.820Z,34.70
2017-09-25T04:45:24.734Z,34.70
2017-09-25T04:47:56.441Z,34.80
2017-09-25T04:50:27.356Z,34.70
2017-09-25T04:52:59.170Z,34.80
2017-09-25T04:55:30.431Z,34.90
2017-09-25T04:58:02.169Z,35.00
2017-09-25T05:00:34.219Z,35.00
2017-09-25T05:03:05.122Z,35.00
2017-09-25T05:05:36.024Z,35.10
2017-09-25T05:08:07.713Z,35.20
2017-09-25T05:10:38.631Z,35.10
2017-09-25T05:13:10.663Z,35.20
2017-09-25T05:15:41.554Z,35.10
2017-09-25T05:18:12.495Z,35.20
2017-09-25T05:20:43.422Z,35.20
2017-09-25T05:23:14.318Z,35.20
2017-09-25T05:25:45.610Z,35.30
2017-09-25T05:28:16.533Z,35.40
2017-09-25T05:30:48.322Z,35.30
2017-09-25T05:33:19.262Z,35.30
2017-09-25T05:35:50.169Z,35.40
2017-09-25T05:38:21.856Z,35.60
2017-09-25T05:40:52.778Z,35.50
2017-09-25T05:43:24.154Z,35.60
2017-09-25T05:45:55.057Z,35.60
2017-09-25T05:48:25.951Z,35.60
2017-09-25T05:50:56.940Z,35.60
2017-09-25T05:53:27.850Z,35.60
2017-09-25T05:56:00.051Z,35.60
2017-09-25T05:58:31.018Z,35.60
2017-09-25T06:01:02.323Z,35.60
2017-09-25T06:03:34.849Z,35.60
2017-09-25T06:06:05.754Z,35.60
2017-09-25T06:08:36.676Z,35.70
2017-09-25T06:11:07.577Z,35.70
2017-09-25T06:13:39.551Z,35.70
2017-09-25T06:16:11.223Z,35.70
2017-09-25T06:18:42.912Z,35.70
2017-09-25T06:21:13.802Z,35.70
2017-09-25T06:23:45.487Z,35.70
2017-09-25T06:26:16.833Z,35.70
2017-09-25T06:28:47.755Z,35.70
2017-09-25T06:31:19.614Z,35.90
2017-09-25T06:33:51.292Z,35.80
2017-09-25T06:36:22.212Z,35.80
2017-09-25T06:38:53.888Z,35.50
2017-09-25T06:41:24.825Z,35.50
2017-09-25T06:43:56.066Z,35.20
2017-09-25T06:46:26.981Z,35.00
2017-09-25T06:48:58.700Z,34.90
2017-09-25T06:51:29.608Z,34.90
2017-09-25T06:54:01.302Z,35.10
2017-09-25T06:56:32.931Z,35.20
2017-09-25T06:59:03.912Z,35.30
2017-09-25T07:01:35.098Z,35.40
2017-09-25T07:04:06.059Z,35.40
2017-09-25T07:06:36.967Z,35.30
2017-09-25T07:11:42.462Z,35.00
2017-09-25T07:14:13.516Z,34.90
2017-09-25T07:16:44.440Z,34.70
2017-09-25T07:19:15.345Z,34.60
2017-09-25T07:21:47.827Z,34.50
2017-09-25T07:24:19.510Z,34.40
2017-09-25T07:26:50.913Z,34.40
2017-09-25T07:29:22.591Z,34.40
2017-09-25T07:31:53.466Z,34.40
2017-09-25T07:34:24.387Z,34.50
2017-09-25T07:36:55.331Z,34.50
2017-09-25T07:39:26.258Z,34.40
2017-09-25T07:41:57.166Z,34.30
2017-09-25T07:44:29.370Z,34.40
2017-09-25T07:47:00.283Z,34.40
2017-09-25T07:49:31.259Z,34.50
2017-09-25T07:52:02.383Z,34.50
2017-09-25T07:54:33.330Z,34.60
2017-09-25T07:57:04.538Z,34.70
2017-09-25T07:59:36.222Z,34.70
2017-09-25T08:02:07.142Z,34.70
2017-09-25T08:04:38.050Z,34.70
2017-09-25T08:07:09.722Z,34.60
2017-09-25T08:09:41.751Z,34.50
2017-09-25T08:12:12.656Z,34.50
2017-09-25T08:14:44.075Z,34.50
2017-09-25T08:17:15.741Z,34.50
2017-09-25T08:19:47.198Z,34.40
2017-09-25T08:22:18.107Z,34.40
2017-09-25T08:24:49.784Z,34.40
2017-09-25T08:27:20.725Z,34.30
2017-09-25T08:29:51.671Z,34.30
2017-09-25T08:32:22.587Z,34.30
2017-09-25T08:34:54.279Z,34.20
2017-09-25T08:37:25.496Z,34.20
2017-09-25T08:39:57.591Z,34.10
2017-09-25T08:42:28.519Z,34.10
2017-09-25T08:44:59.752Z,34.00
2017-09-25T08:47:30.686Z,34.00
2017-09-25T08:50:01.606Z,33.90
2017-09-25T08:52:33.288Z,33.90
2017-09-25T08:55:04.266Z,33.90
2017-09-25T08:57:35.454Z,33.80
2017-09-25T09:00:07.135Z,33.80
2017-09-25T09:02:38.067Z,33.80
2017-09-25T09:05:09.003Z,33.70
2017-09-25T09:07:39.912Z,33.70
2017-09-25T09:10:11.998Z,33.50
2017-09-25T09:12:42.953Z,33.50
2017-09-25T09:15:14.284Z,33.50
2017-09-25T09:17:45.189Z,33.50
2017-09-25T09:20:16.103Z,33.40
2017-09-25T09:22:47.011Z,33.40
2017-09-25T09:25:17.938Z,33.30
2017-09-25T09:27:49.280Z,33.20
2017-09-25T09:30:20.211Z,33.10
2017-09-25T09:32:51.954Z,32.90
2017-09-25T09:35:23.608Z,32.90
2017-09-25T09:37:54.544Z,32.90
2017-09-25T09:40:25.827Z,32.80
2017-09-25T09:42:56.747Z,32.70
2017-09-25T09:45:28.931Z,32.70
2017-09-25T09:47:59.853Z,32.70
2017-09-25T09:50:31.567Z,32.60
2017-09-25T09:53:03.103Z,32.60
2017-09-25T09:55:34.022Z,32.60
2017-09-25T09:58:05.283Z,32.60
2017-09-25T10:00:36.201Z,32.50
2017-09-25T10:03:07.131Z,32.50
2017-09-25T10:05:38.035Z,32.50
2017-09-25T10:08:09.042Z,32.40
2017-09-25T10:10:39.929Z,32.40
2017-09-25T10:13:11.630Z,32.20
2017-09-25T10:15:42.960Z,32.20
2017-09-25T10:18:13.888Z,32.10
2017-09-25T10:20:44.861Z,32.10
2017-09-25T10:23:15.778Z,32.00
2017-09-25T10:25:46.716Z,31.90
2017-09-25T10:28:17.949Z,31.80
2017-09-25T10:30:49.655Z,31.60
2017-09-25T10:33:20.527Z,31.60
2017-09-25T10:35:52.202Z,31.50
2017-09-25T10:38:23.127Z,31.40
2017-09-25T10:40:55.363Z,31.30
2017-09-25T10:43:26.289Z,31.30
2017-09-25T10:45:57.703Z,31.20
2017-09-25T10:48:28.631Z,31.10
2017-09-25T10:51:00.334Z,31.00
2017-09-25T10:53:31.295Z,30.90
2017-09-25T10:56:02.236Z,30.90
2017-09-25T10:58:33.537Z,30.80
2017-09-25T11:01:04.621Z,30.70
2017-09-25T11:03:36.426Z,30.60
2017-09-25T11:06:07.441Z,30.60
2017-09-25T11:08:38.462Z,30.50
2017-09-25T11:11:10.806Z,30.40
2017-09-25T11:13:41.811Z,30.40
2017-09-25T11:16:13.170Z,30.30
2017-09-25T11:18:44.152Z,30.30
2017-09-25T11:21:16.019Z,30.10
2017-09-25T11:23:47.783Z,30.00
2017-09-25T11:26:19.562Z,30.00
2017-09-25T11:28:50.913Z,29.90
2017-09-25T11:31:21.918Z,29.90
2017-09-25T11:33:52.922Z,29.80
2017-09-25T11:36:23.985Z,29.80
2017-09-25T11:38:54.984Z,29.70
2017-09-25T11:41:26.160Z,29.70
2017-09-25T11:43:57.173Z,29.60
2017-09-25T11:46:28.770Z,29.60
2017-09-25T11:48:59.858Z,29.50
2017-09-25T11:51:31.095Z,29.50
2017-09-25T11:54:02.123Z,29.50
2017-09-25T11:56:33.976Z,29.40
2017-09-25T11:59:06.244Z,29.40
2017-09-25T12:01:38.038Z,29.40
2017-09-25T12:04:09.048Z,29.40
2017-09-25T12:06:40.846Z,29.30
2017-09-25T12:09:11.921Z,29.30
2017-09-25T12:11:43.455Z,29.30
2017-09-25T12:14:14.434Z,29.20
2017-09-25T12:16:46.631Z,29.20
2017-09-25T12:19:17.649Z,29.20
2017-09-25T12:21:49.512Z,29.20
2017-09-25T12:24:20.869Z,29.10
2017-09-25T12:26:51.878Z,29.10
2017-09-25T12:29:23.357Z,29.10
2017-09-25T12:31:55.208Z,29.00
2017-09-25T12:34:27.020Z,29.00
2017-09-25T12:36:58.086Z,29.00
2017-09-25T12:39:29.156Z,29.00
2017-09-25T12:42:01.160Z,29.00
2017-09-25T12:44:32.185Z,28.90
2017-09-25T12:47:03.193Z,28.90
2017-09-25T12:49:34.984Z,28.90
2017-09-25T12:52:06.766Z,28.90
2017-09-25T12:54:38.151Z,28.90
2017-09-25T12:57:09.183Z,28.80
2017-09-25T12:59:40.542Z,28.80
2017-09-25T13:02:12.347Z,28.80
2017-09-25T13:04:43.420Z,28.80
2017-09-25T13:07:14.449Z,28.80
2017-09-25T13:09:45.485Z,28.80
2017-09-25T13:12:16.890Z,28.80
2017-09-25T13:14:48.640Z,29.50
2017-09-25T13:17:20.430Z,28.80
2017-09-25T13:19:51.454Z,28.80
2017-09-25T13:22:22.455Z,28.80
2017-09-25T13:24:53.836Z,28.80
2017-09-25T13:27:25.693Z,28.80
2017-09-25T13:29:57.026Z,28.80
2017-09-25T13:32:28.048Z,28.70
2017-09-25T13:34:59.082Z,28.70
2017-09-25T13:37:30.113Z,28.70
2017-09-25T13:40:01.125Z,28.70
2017-09-25T13:42:33.386Z,28.70
2017-09-25T13:45:04.403Z,28.60
2017-09-25T13:47:36.182Z,28.70
2017-09-25T13:50:07.251Z,28.60
2017-09-25T13:52:38.319Z,28.60
2017-09-25T13:55:09.799Z,28.60
2017-09-25T13:57:41.613Z,28.60
2017-09-25T14:02:47.654Z,28.60
2017-09-25T14:05:18.651Z,28.60
2017-09-25T14:07:49.677Z,28.60
2017-09-25T14:10:20.743Z,28.60
2017-09-25T14:12:53.512Z,28.60
2017-09-25T14:15:24.592Z,28.60
2017-09-25T14:17:55.661Z,28.20
2017-09-25T14:20:26.766Z,28.60
2017-09-25T14:22:57.833Z,28.60
2017-09-25T14:25:29.774Z,28.60
2017-09-25T14:28:01.554Z,28.60
2017-09-25T14:30:32.856Z,28.60
2017-09-25T14:33:04.863Z,28.60
2017-09-25T14:35:35.881Z,28.60
2017-09-25T14:38:07.777Z,28.60
2017-09-25T14:40:38.877Z,28.60
2017-09-25T14:43:10.907Z,28.70
2017-09-25T14:45:41.981Z,28.60
2017-09-25T14:48:13.808Z,28.60
2017-09-25T14:50:44.829Z,28.60
2017-09-25T14:53:15.818Z,28.50
2017-09-25T14:55:47.894Z,28.50
2017-09-25T14:58:19.769Z,28.50
2017-09-25T15:00:50.744Z,28.50
2017-09-25T15:03:22.844Z,28.50
2017-09-25T15:05:54.672Z,28.50
2017-09-25T15:08:26.105Z,28.50
2017-09-25T15:10:57.118Z,28.50
2017-09-25T15:13:28.370Z,28.50
2017-09-25T15:15:59.396Z,28.50
2017-09-25T15:18:31.182Z,28.50
2017-09-25T15:21:02.184Z,28.40
2017-09-25T15:23:34.128Z,28.50
2017-09-25T15:26:05.602Z,28.50
2017-09-25T15:28:37.484Z,28.50
2017-09-25T15:31:08.590Z,28.40
2017-09-25T15:33:40.397Z,28.40
2017-09-25T15:36:11.388Z,28.40
2017-09-25T15:38:42.637Z,28.40
2017-09-25T15:41:14.442Z,28.40
2017-09-25T15:43:45.665Z,28.40
2017-09-25T15:46:16.664Z,28.40
2017-09-25T15:48:47.667Z,28.40
2017-09-25T15:51:18.733Z,28.40
2017-09-25T15:53:49.763Z,28.40
2017-09-25T15:56:23.753Z,28.40
2017-09-25T15:58:54.777Z,28.40
2017-09-25T16:01:25.848Z,28.40
2017-09-25T16:03:56.882Z,28.40
2017-09-25T16:06:28.667Z,28.40
2017-09-25T16:09:00.060Z,28.40
2017-09-25T16:11:31.853Z,28.40
2017-09-25T16:14:03.422Z,28.40
2017-09-25T16:16:34.493Z,28.40
2017-09-25T16:19:06.289Z,28.40
2017-09-25T16:21:37.290Z,28.30
2017-09-25T16:24:08.427Z,28.30
2017-09-25T16:26:40.202Z,28.30
2017-09-25T16:29:11.983Z,28.30
2017-09-25T16:31:42.977Z,28.30
2017-09-25T16:34:13.990Z,28.30
2017-09-25T16:36:45.067Z,28.30
2017-09-25T16:39:16.294Z,28.30
2017-09-25T16:41:47.498Z,28.20
2017-09-25T16:44:19.773Z,28.30
2017-09-25T16:46:55.782Z,28.20
2017-09-25T16:49:27.069Z,28.20
2017-09-25T16:51:58.070Z,28.20
2017-09-25T16:54:29.086Z,28.20
2017-09-25T16:57:00.374Z,28.20
2017-09-25T16:59:32.432Z,28.20
2017-09-25T17:02:03.493Z,28.20
2017-09-25T17:04:35.287Z,28.20
2017-09-25T17:07:06.329Z,28.20
2017-09-25T17:09:39.325Z,28.20
2017-09-25T17:12:10.319Z,28.20
2017-09-25T17:14:42.156Z,28.10
2017-09-25T17:17:13.970Z,28.20
2017-09-25T17:19:44.951Z,28.20
2017-09-25T17:22:17.131Z,28.10
2017-09-25T17:24:49.230Z,28.10
2017-09-25T17:27:21.471Z,28.10
2017-09-25T17:29:53.261Z,28.10
2017-09-25T17:32:24.277Z,28.10
2017-09-25T17:34:56.061Z,28.00
2017-09-25T17:37:27.077Z,28.00
2017-09-25T17:39:59.416Z,28.10
2017-09-25T17:42:30.497Z,28.10
2017-09-25T17:45:01.523Z,28.10
2017-09-25T17:47:33.239Z,28.20
2017-09-25T17:50:04.162Z,28.10
2017-09-25T17:52:35.781Z,28.10
2017-09-25T17:55:07.465Z,28.20
2017-09-25T17:57:38.579Z,28.20
2017-09-25T18:00:10.284Z,28.20
2017-09-25T18:02:41.198Z,28.20
2017-09-25T18:05:12.116Z,28.20
2017-09-25T18:07:43.831Z,28.20
2017-09-25T18:10:15.292Z,28.20
2017-09-25T18:12:46.203Z,28.10
2017-09-25T18:15:17.154Z,28.10
2017-09-25T18:17:48.069Z,28.10
2017-09-25T18:20:18.966Z,28.10
2017-09-25T18:22:51.122Z,28.10
2017-09-25T18:25:22.042Z,28.10
2017-09-25T18:27:53.451Z,28.10
2017-09-25T18:30:25.079Z,28.00
2017-09-25T18:32:56.775Z,28.00
2017-09-25T18:35:27.711Z,28.00
2017-09-25T18:37:58.626Z,28.00
2017-09-25T18:40:30.798Z,28.00
2017-09-25T18:43:01.752Z,27.90
2017-09-25T18:45:32.687Z,27.90
2017-09-25T18:48:03.627Z,27.90
2017-09-25T18:50:34.528Z,28.00
2017-09-25T18:53:05.447Z,27.90
2017-09-25T18:55:36.404Z,27.90
2017-09-25T18:58:07.485Z,27.90
2017-09-25T19:00:38.422Z,27.90
2017-09-25T19:03:09.363Z,27.90
2017-09-25T19:05:40.257Z,27.90
2017-09-25T19:08:11.187Z,27.90
2017-09-25T19:10:42.618Z,27.90
2017-09-25T19:13:13.538Z,27.90
2017-09-25T19:15:44.459Z,27.90
2017-09-25T19:18:15.502Z,27.90
2017-09-25T19:20:46.443Z,27.90
2017-09-25T19:23:17.375Z,27.90
2017-09-25T19:25:48.302Z,27.90
2017-09-25T19:28:21.073Z,27.90
2017-09-25T19:30:52.755Z,27.90
2017-09-25T19:33:23.663Z,27.90
2017-09-25T19:35:55.353Z,27.80
2017-09-25T19:38:26.298Z,27.80
2017-09-25T19:40:57.775Z,27.80
2017-09-25T19:43:28.687Z,27.80
2017-09-25T19:45:59.900Z,27.80
2017-09-25T19:48:32.767Z,27.80
2017-09-25T19:51:06.863Z,27.80
2017-09-25T19:53:38.375Z,27.80
2017-09-25T19:56:23.728Z,27.80
2017-09-25T19:58:56.675Z,27.80
2017-09-25T20:01:27.896Z,27.80
2017-09-25T20:03:59.082Z,27.80
2017-09-25T20:06:30.572Z,27.80
2017-09-25T20:09:01.789Z,27.80
2017-09-25T20:11:34.550Z,27.80
2017-09-25T20:14:20.691Z,27.80
2017-09-25T20:16:56.670Z,27.80
2017-09-25T20:19:27.842Z,27.70
2017-09-25T20:21:58.791Z,27.70
2017-09-25T20:24:29.726Z,27.70
2017-09-25T20:27:00.646Z,27.80
2017-09-25T20:29:31.566Z,27.70
2017-09-25T20:32:03.409Z,27.70
2017-09-25T20:34:34.307Z,27.70
2017-09-25T20:37:06.270Z,27.70
2017-09-25T20:39:38.238Z,27.70
2017-09-25T20:42:27.367Z,27.60
2017-09-25T20:44:58.606Z,27.60
2017-09-25T20:47:29.674Z,27.60
2017-09-25T20:50:00.953Z,27.60
2017-09-25T20:52:31.891Z,27.60
2017-09-25T20:55:03.553Z,27.60
2017-09-25T20:57:34.604Z,27.50
2017-09-25T21:00:05.268Z,27.50
2017-09-25T21:02:37.907Z,27.50
2017-09-25T21:05:08.835Z,27.50
2017-09-25T21:07:40.546Z,27.50
2017-09-25T21:10:11.498Z,27.40
2017-09-25T21:12:42.430Z,27.40
2017-09-25T21:15:13.412Z,27.50
2017-09-25T21:17:44.331Z,27.50
2017-09-25T21:20:17.230Z,27.50
2017-09-25T21:22:49.204Z,27.50
2017-09-25T21:25:20.421Z,27.40
2017-09-25T21:27:52.982Z,27.50
2017-09-25T21:30:23.889Z,27.50
2017-09-25T21:32:55.755Z,27.50
2017-09-25T21:35:26.673Z,27.50
2017-09-25T21:37:57.664Z,27.50
2017-09-25T21:40:28.579Z,27.50
2017-09-25T21:42:59.501Z,27.50
2017-09-25T21:45:30.436Z,27.60
2017-09-25T21:48:01.350Z,27.60
2017-09-25T21:50:32.567Z,27.60
2017-09-25T21:53:03.511Z,27.70
2017-09-25T21:55:35.207Z,27.70
2017-09-25T21:58:06.954Z,27.70
2017-09-25T22:00:37.883Z,27.70
2017-09-25T22:03:11.841Z,27.80
2017-09-25T22:05:43.475Z,27.80
2017-09-25T22:08:14.448Z,27.80
2017-09-25T22:10:45.344Z,27.80
2017-09-25T22:13:17.052Z,27.80
2017-09-25T22:15:50.020Z,27.80
2017-09-25T22:18:20.918Z,27.80
2017-09-25T22:20:52.155Z,27.80
2017-09-25T22:23:23.227Z,27.80
2017-09-25T22:25:54.163Z,27.80
2017-09-25T22:28:25.080Z,27.80
2017-09-25T22:30:57.036Z,27.80
2017-09-25T22:33:29.571Z,27.80
2017-09-25T22:36:00.759Z,27.80
2017-09-25T22:38:31.966Z,27.70
2017-09-25T22:41:03.155Z,27.70
2017-09-25T22:43:36.874Z,27.70
2017-09-25T22:46:08.192Z,27.60
2017-09-25T22:48:39.151Z,27.60
2017-09-25T22:51:11.575Z,27.60
2017-09-25T22:53:42.478Z,27.50
2017-09-25T22:56:13.633Z,27.50
2017-09-25T22:58:44.591Z,27.40
2017-09-25T23:01:15.498Z,27.40
2017-09-25T23:03:47.764Z,27.40
2017-09-25T23:06:18.720Z,27.50
2017-09-25T23:08:50.020Z,27.40
2017-09-25T23:11:33.462Z,27.40
2017-09-25T23:14:04.654Z,27.40
2017-09-25T23:16:36.861Z,27.40
2017-09-25T23:19:07.987Z,27.40
2017-09-25T23:21:39.725Z,27.40
2017-09-25T23:24:10.855Z,27.40
2017-09-25T23:26:42.013Z,27.40
2017-09-25T23:29:15.214Z,27.40
2017-09-25T23:31:46.967Z,27.30
2017-09-25T23:34:19.687Z,27.40
2017-09-25T23:36:50.587Z,27.40
2017-09-25T23:39:22.279Z,27.30
2017-09-25T23:41:54.015Z,27.30
2017-09-25T23:44:25.068Z,27.30
2017-09-25T23:46:56.416Z,27.30
2017-09-25T23:49:27.431Z,27.30
2017-09-25T23:51:59.277Z,27.40
2017-09-25T23:54:30.275Z,27.40
2017-09-25T23:57:01.283Z,27.50
2017-09-25T23:59:32.727Z,27.50
